sensor_id;sensor_type;location;lat;lon;timestamp;pressure;altitude;pressure_sealevel;temperature;humidity
41250;BME280;26984;59.928;30.306;2022-11-20T00:01:46;101906.63;;;-3.58;100.00
41250;BME280;26984;59.928;30.306;2022-11-20T00:04:13;101909.06;;;-3.70;100.00
41250;BME280;26984;59.928;30.306;2022-11-20T00:06:41;101904.66;;;-3.69;100.00
41250;BME280;26984;59.928;30.306;2022-11-20T00:09:09;101898.97;;;-3.63;100.00
41250;BME280;26984;59.928;30.306;2022-11-20T00:11:38;101900.22;;;-3.54;100.00
41250;BME280;26984;59.928;30.306;2022-11-20T00:14:06;101904.47;;;-3.52;100.00
41250;BME280;26984;59.928;30.306;2022-11-20T00:16:33;101907.28;;;-3.55;100.00
41250;BME280;26984;59.928;30.306;2022-11-20T00:19:03;101902.38;;;-3.47;100.00
41250;BME280;26984;59.928;30.306;2022-11-20T00:21:30;101900.69;;;-3.48;100.00
41250;BME280;26984;59.928;30.306;2022-11-20T00:23:58;101899.75;;;-3.47;100.00
41250;BME280;26984;59.928;30.306;2022-11-20T00:26:27;101898.63;;;-3.43;100.00
41250;BME280;26984;59.928;30.306;2022-11-20T00:28:55;101893.63;;;-3.47;100.00
41250;BME280;26984;59.928;30.306;2022-11-20T00:31:23;101893.47;;;-3.44;100.00
41250;BME280;26984;59.928;30.306;2022-11-20T00:33:50;101885.38;;;-3.41;100.00
41250;BME280;26984;59.928;30.306;2022-11-20T00:36:20;101883.94;;;-3.47;100.00
41250;BME280;26984;59.928;30.306;2022-11-20T00:38:50;101876.03;;;-3.47;100.00
41250;BME280;26984;59.928;30.306;2022-11-20T00:41:18;101874.81;;;-3.41;100.00
41250;BME280;26984;59.928;30.306;2022-11-20T00:43:45;101876.81;;;-3.45;100.00
41250;BME280;26984;59.928;30.306;2022-11-20T00:46:13;101864.47;;;-3.44;100.00
41250;BME280;26984;59.928;30.306;2022-11-20T00:48:41;101875.56;;;-3.39;100.00
41250;BME280;26984;59.928;30.306;2022-11-20T00:51:08;101873.56;;;-3.35;100.00
41250;BME280;26984;59.928;30.306;2022-11-20T00:53:38;101869.63;;;-3.28;100.00
41250;BME280;26984;59.928;30.306;2022-11-20T00:56:05;101867.81;;;-3.28;100.00
41250;BME280;26984;59.928;30.306;2022-11-20T00:58:33;101865.19;;;-3.28;100.00
41250;BME280;26984;59.928;30.306;2022-11-20T01:01:01;101865.28;;;-3.29;100.00
41250;BME280;26984;59.928;30.306;2022-11-20T01:03:30;101871.94;;;-3.24;100.00
41250;BME280;26984;59.928;30.306;2022-11-20T01:05:59;101856.59;;;-3.17;100.00
41250;BME280;26984;59.928;30.306;2022-11-20T01:08:28;101857.75;;;-3.21;100.00
41250;BME280;26984;59.928;30.306;2022-11-20T01:10:59;101853.44;;;-3.22;100.00
41250;BME280;26984;59.928;30.306;2022-11-20T01:13:27;101847.69;;;-3.29;100.00
41250;BME280;26984;59.928;30.306;2022-11-20T01:16:05;101838.09;;;-3.30;100.00
41250;BME280;26984;59.928;30.306;2022-11-20T01:18:33;101842.91;;;-3.37;100.00
41250;BME280;26984;59.928;30.306;2022-11-20T01:21:01;101845.63;;;-3.38;100.00
41250;BME280;26984;59.928;30.306;2022-11-20T01:23:32;101851.47;;;-3.33;100.00
41250;BME280;26984;59.928;30.306;2022-11-20T01:26:02;101838.84;;;-3.28;100.00
41250;BME280;26984;59.928;30.306;2022-11-20T01:28:29;101834.72;;;-3.32;100.00
41250;BME280;26984;59.928;30.306;2022-11-20T01:30:57;101835.66;;;-3.33;100.00
41250;BME280;26984;59.928;30.306;2022-11-20T01:33:25;101831.03;;;-3.29;100.00
41250;BME280;26984;59.928;30.306;2022-11-20T01:35:52;101825.31;;;-3.36;100.00
41250;BME280;26984;59.928;30.306;2022-11-20T01:38:20;101835.97;;;-3.38;100.00
41250;BME280;26984;59.928;30.306;2022-11-20T01:40:53;101830.75;;;-3.39;100.00
41250;BME280;26984;59.928;30.306;2022-11-20T01:43:23;101831.41;;;-3.35;100.00
41250;BME280;26984;59.928;30.306;2022-11-20T01:45:58;101833.22;;;-3.36;100.00
41250;BME280;26984;59.928;30.306;2022-11-20T01:48:26;101820.69;;;-3.32;100.00
41250;BME280;26984;59.928;30.306;2022-11-20T01:50:55;101824.34;;;-3.35;100.00
41250;BME280;26984;59.928;30.306;2022-11-20T01:53:25;101832.00;;;-3.30;100.00
41250;BME280;26984;59.928;30.306;2022-11-20T01:55:54;101826.72;;;-3.30;100.00
41250;BME280;26984;59.928;30.306;2022-11-20T01:58:27;101826.72;;;-3.30;100.00
41250;BME280;26984;59.928;30.306;2022-11-20T02:00:55;101813.81;;;-3.35;100.00
41250;BME280;26984;59.928;30.306;2022-11-20T02:03:23;101823.78;;;-3.26;100.00
41250;BME280;26984;59.928;30.306;2022-11-20T02:05:51;101820.78;;;-3.34;100.00
41250;BME280;26984;59.928;30.306;2022-11-20T02:08:19;101814.56;;;-3.33;100.00
41250;BME280;26984;59.928;30.306;2022-11-20T02:10:47;101819.94;;;-3.34;100.00
41250;BME280;26984;59.928;30.306;2022-11-20T02:13:14;101813.56;;;-3.45;100.00
41250;BME280;26984;59.928;30.306;2022-11-20T02:16:01;101816.75;;;-3.40;100.00
41250;BME280;26984;59.928;30.306;2022-11-20T02:18:28;101820.41;;;-3.42;100.00
41250;BME280;26984;59.928;30.306;2022-11-20T02:20:57;101810.94;;;-3.45;100.00
41250;BME280;26984;59.928;30.306;2022-11-20T02:23:27;101820.72;;;-3.47;100.00
41250;BME280;26984;59.928;30.306;2022-11-20T02:25:59;101822.31;;;-3.44;100.00
41250;BME280;26984;59.928;30.306;2022-11-20T02:28:29;101811.47;;;-3.40;100.00
41250;BME280;26984;59.928;30.306;2022-11-20T02:30:57;101820.22;;;-3.39;100.00
41250;BME280;26984;59.928;30.306;2022-11-20T02:33:24;101804.53;;;-3.41;100.00
41250;BME280;26984;59.928;30.306;2022-11-20T02:35:52;101809.16;;;-3.44;100.00
41250;BME280;26984;59.928;30.306;2022-11-20T02:38:21;101810.53;;;-3.39;100.00
41250;BME280;26984;59.928;30.306;2022-11-20T02:40:50;101810.72;;;-3.42;100.00
41250;BME280;26984;59.928;30.306;2022-11-20T02:43:19;101808.31;;;-3.45;100.00
41250;BME280;26984;59.928;30.306;2022-11-20T02:45:46;101804.59;;;-3.42;100.00
41250;BME280;26984;59.928;30.306;2022-11-20T02:48:14;101802.63;;;-3.39;100.00
41250;BME280;26984;59.928;30.306;2022-11-20T02:50:41;101804.72;;;-3.44;100.00
41250;BME280;26984;59.928;30.306;2022-11-20T02:53:09;101801.06;;;-3.41;100.00
41250;BME280;26984;59.928;30.306;2022-11-20T02:55:36;101797.16;;;-3.35;100.00
41250;BME280;26984;59.928;30.306;2022-11-20T02:58:04;101798.13;;;-3.37;100.00
41250;BME280;26984;59.928;30.306;2022-11-20T03:00:32;101795.13;;;-3.45;100.00
41250;BME280;26984;59.928;30.306;2022-11-20T03:03:01;101803.09;;;-3.46;100.00
41250;BME280;26984;59.928;30.306;2022-11-20T03:05:28;101793.88;;;-3.39;100.00
41250;BME280;26984;59.928;30.306;2022-11-20T03:07:56;101793.03;;;-3.40;100.00
41250;BME280;26984;59.928;30.306;2022-11-20T03:10:23;101787.47;;;-3.35;100.00
41250;BME280;26984;59.928;30.306;2022-11-20T03:12:52;101794.22;;;-3.31;100.00
41250;BME280;26984;59.928;30.306;2022-11-20T03:15:20;101789.75;;;-3.43;100.00
41250;BME280;26984;59.928;30.306;2022-11-20T03:17:48;101784.47;;;-3.43;100.00
41250;BME280;26984;59.928;30.306;2022-11-20T03:20:16;101797.00;;;-3.47;100.00
41250;BME280;26984;59.928;30.306;2022-11-20T03:22:43;101791.44;;;-3.42;100.00
41250;BME280;26984;59.928;30.306;2022-11-20T03:25:10;101796.47;;;-3.52;100.00
41250;BME280;26984;59.928;30.306;2022-11-20T03:27:38;101797.75;;;-3.45;100.00
41250;BME280;26984;59.928;30.306;2022-11-20T03:30:06;101798.88;;;-3.49;100.00
41250;BME280;26984;59.928;30.306;2022-11-20T03:32:33;101788.25;;;-3.47;100.00
41250;BME280;26984;59.928;30.306;2022-11-20T03:35:02;101796.66;;;-3.55;100.00
41250;BME280;26984;59.928;30.306;2022-11-20T03:37:31;101793.81;;;-3.52;100.00
41250;BME280;26984;59.928;30.306;2022-11-20T03:39:59;101796.34;;;-3.50;100.00
41250;BME280;26984;59.928;30.306;2022-11-20T03:42:26;101793.59;;;-3.49;100.00
41250;BME280;26984;59.928;30.306;2022-11-20T03:45:12;101791.19;;;-3.52;100.00
41250;BME280;26984;59.928;30.306;2022-11-20T03:47:39;101789.94;;;-3.46;100.00
41250;BME280;26984;59.928;30.306;2022-11-20T03:50:09;101787.59;;;-3.51;100.00
41250;BME280;26984;59.928;30.306;2022-11-20T03:52:37;101789.47;;;-3.53;100.00
41250;BME280;26984;59.928;30.306;2022-11-20T03:55:06;101793.81;;;-3.52;100.00
41250;BME280;26984;59.928;30.306;2022-11-20T03:57:34;101790.53;;;-3.55;100.00
41250;BME280;26984;59.928;30.306;2022-11-20T04:00:01;101786.00;;;-3.53;100.00
41250;BME280;26984;59.928;30.306;2022-11-20T04:02:30;101779.13;;;-3.56;100.00
41250;BME280;26984;59.928;30.306;2022-11-20T04:04:59;101789.66;;;-3.56;100.00
41250;BME280;26984;59.928;30.306;2022-11-20T04:07:28;101787.63;;;-3.65;100.00
41250;BME280;26984;59.928;30.306;2022-11-20T04:09:55;101775.31;;;-3.65;100.00
41250;BME280;26984;59.928;30.306;2022-11-20T04:12:22;101782.34;;;-3.65;100.00
41250;BME280;26984;59.928;30.306;2022-11-20T04:14:49;101779.06;;;-3.69;100.00
41250;BME280;26984;59.928;30.306;2022-11-20T04:17:18;101772.38;;;-3.60;100.00
41250;BME280;26984;59.928;30.306;2022-11-20T04:19:47;101778.88;;;-3.66;100.00
41250;BME280;26984;59.928;30.306;2022-11-20T04:22:14;101774.81;;;-3.57;100.00
41250;BME280;26984;59.928;30.306;2022-11-20T04:24:43;101773.78;;;-3.54;100.00
41250;BME280;26984;59.928;30.306;2022-11-20T04:27:10;101769.00;;;-3.62;100.00
41250;BME280;26984;59.928;30.306;2022-11-20T04:29:37;101776.25;;;-3.66;100.00
41250;BME280;26984;59.928;30.306;2022-11-20T04:32:05;101773.22;;;-3.59;100.00
41250;BME280;26984;59.928;30.306;2022-11-20T04:34:32;101767.59;;;-3.68;100.00
41250;BME280;26984;59.928;30.306;2022-11-20T04:37:00;101762.25;;;-3.80;100.00
41250;BME280;26984;59.928;30.306;2022-11-20T04:39:27;101770.59;;;-3.74;100.00
41250;BME280;26984;59.928;30.306;2022-11-20T04:41:56;101771.66;;;-3.76;100.00
41250;BME280;26984;59.928;30.306;2022-11-20T04:44:37;101773.81;;;-3.83;100.00
41250;BME280;26984;59.928;30.306;2022-11-20T04:47:04;101765.72;;;-3.80;100.00
41250;BME280;26984;59.928;30.306;2022-11-20T04:49:32;101756.22;;;-3.82;100.00
41250;BME280;26984;59.928;30.306;2022-11-20T04:51:59;101761.38;;;-3.81;100.00
41250;BME280;26984;59.928;30.306;2022-11-20T04:54:27;101766.75;;;-3.82;100.00
41250;BME280;26984;59.928;30.306;2022-11-20T04:56:55;101770.06;;;-3.79;100.00
41250;BME280;26984;59.928;30.306;2022-11-20T04:59:23;101775.13;;;-3.76;100.00
41250;BME280;26984;59.928;30.306;2022-11-20T05:01:50;101778.25;;;-3.83;100.00
41250;BME280;26984;59.928;30.306;2022-11-20T05:04:18;101774.00;;;-3.86;100.00
41250;BME280;26984;59.928;30.306;2022-11-20T05:06:45;101775.44;;;-3.80;100.00
41250;BME280;26984;59.928;30.306;2022-11-20T05:09:12;101781.72;;;-3.83;100.00
41250;BME280;26984;59.928;30.306;2022-11-20T05:11:40;101773.63;;;-3.80;100.00
41250;BME280;26984;59.928;30.306;2022-11-20T05:14:09;101770.16;;;-3.80;100.00
41250;BME280;26984;59.928;30.306;2022-11-20T05:16:36;101776.81;;;-3.89;100.00
41250;BME280;26984;59.928;30.306;2022-11-20T05:19:03;101774.31;;;-3.91;100.00
41250;BME280;26984;59.928;30.306;2022-11-20T05:21:31;101769.22;;;-3.94;100.00
41250;BME280;26984;59.928;30.306;2022-11-20T05:23:58;101782.00;;;-3.88;100.00
41250;BME280;26984;59.928;30.306;2022-11-20T05:26:26;101779.56;;;-3.91;100.00
41250;BME280;26984;59.928;30.306;2022-11-20T05:28:53;101776.09;;;-3.91;100.00
41250;BME280;26984;59.928;30.306;2022-11-20T05:31:22;101778.25;;;-3.83;100.00
41250;BME280;26984;59.928;30.306;2022-11-20T05:33:50;101787.53;;;-3.78;100.00
41250;BME280;26984;59.928;30.306;2022-11-20T05:36:18;101785.09;;;-3.81;100.00
41250;BME280;26984;59.928;30.306;2022-11-20T05:38:45;101789.44;;;-3.80;100.00
41250;BME280;26984;59.928;30.306;2022-11-20T05:41:13;101783.97;;;-3.77;100.00
41250;BME280;26984;59.928;30.306;2022-11-20T05:43:41;101785.97;;;-3.80;100.00
41250;BME280;26984;59.928;30.306;2022-11-20T05:46:10;101782.09;;;-3.75;100.00
41250;BME280;26984;59.928;30.306;2022-11-20T05:48:39;101784.06;;;-3.78;100.00
41250;BME280;26984;59.928;30.306;2022-11-20T05:51:07;101789.78;;;-3.72;100.00
41250;BME280;26984;59.928;30.306;2022-11-20T05:53:35;101782.66;;;-3.70;100.00
41250;BME280;26984;59.928;30.306;2022-11-20T05:56:04;101781.72;;;-3.83;100.00
41250;BME280;26984;59.928;30.306;2022-11-20T05:58:32;101783.69;;;-3.72;100.00
41250;BME280;26984;59.928;30.306;2022-11-20T06:01:04;101786.50;;;-3.61;100.00
41250;BME280;26984;59.928;30.306;2022-11-20T06:03:32;101791.38;;;-3.55;100.00
41250;BME280;26984;59.928;30.306;2022-11-20T06:06:01;101791.47;;;-3.56;100.00
41250;BME280;26984;59.928;30.306;2022-11-20T06:08:28;101786.84;;;-3.53;100.00
41250;BME280;26984;59.928;30.306;2022-11-20T06:10:56;101784.84;;;-3.49;100.00
41250;BME280;26984;59.928;30.306;2022-11-20T06:13:23;101792.19;;;-3.40;100.00
41250;BME280;26984;59.928;30.306;2022-11-20T06:15:51;101785.66;;;-3.34;100.00
41250;BME280;26984;59.928;30.306;2022-11-20T06:18:19;101790.38;;;-3.25;100.00
41250;BME280;26984;59.928;30.306;2022-11-20T06:20:46;101788.06;;;-3.17;100.00
41250;BME280;26984;59.928;30.306;2022-11-20T06:23:15;101794.63;;;-3.10;100.00
41250;BME280;26984;59.928;30.306;2022-11-20T06:25:42;101790.97;;;-3.07;100.00
41250;BME280;26984;59.928;30.306;2022-11-20T06:28:10;101795.66;;;-2.98;100.00
41250;BME280;26984;59.928;30.306;2022-11-20T06:30:37;101794.88;;;-3.00;100.00
41250;BME280;26984;59.928;30.306;2022-11-20T06:33:11;101798.09;;;-2.95;100.00
41250;BME280;26984;59.928;30.306;2022-11-20T06:35:38;101791.22;;;-2.98;100.00
41250;BME280;26984;59.928;30.306;2022-11-20T06:38:05;101797.06;;;-3.07;100.00
41250;BME280;26984;59.928;30.306;2022-11-20T06:40:34;101792.56;;;-3.05;100.00
41250;BME280;26984;59.928;30.306;2022-11-20T06:43:02;101781.38;;;-3.08;100.00
41250;BME280;26984;59.928;30.306;2022-11-20T06:45:29;101786.28;;;-3.17;100.00
41250;BME280;26984;59.928;30.306;2022-11-20T06:47:56;101793.53;;;-3.20;100.00
41250;BME280;26984;59.928;30.306;2022-11-20T06:50:24;101794.88;;;-3.27;100.00
41250;BME280;26984;59.928;30.306;2022-11-20T06:52:51;101797.50;;;-3.27;100.00
41250;BME280;26984;59.928;30.306;2022-11-20T06:55:19;101791.41;;;-3.28;100.00
41250;BME280;26984;59.928;30.306;2022-11-20T06:57:47;101795.38;;;-3.35;100.00
41250;BME280;26984;59.928;30.306;2022-11-20T07:00:15;101793.03;;;-3.40;100.00
41250;BME280;26984;59.928;30.306;2022-11-20T07:02:42;101797.53;;;-3.42;100.00
41250;BME280;26984;59.928;30.306;2022-11-20T07:05:10;101798.50;;;-3.43;100.00
41250;BME280;26984;59.928;30.306;2022-11-20T07:07:37;101790.31;;;-3.52;100.00
41250;BME280;26984;59.928;30.306;2022-11-20T07:10:05;101798.03;;;-3.49;100.00
41250;BME280;26984;59.928;30.306;2022-11-20T07:12:32;101797.53;;;-3.42;100.00
41250;BME280;26984;59.928;30.306;2022-11-20T07:15:01;101792.88;;;-3.51;100.00
41250;BME280;26984;59.928;30.306;2022-11-20T07:17:28;101796.53;;;-3.53;100.00
41250;BME280;26984;59.928;30.306;2022-11-20T07:20:00;101791.38;;;-3.55;100.00
41250;BME280;26984;59.928;30.306;2022-11-20T07:22:27;101804.38;;;-3.52;100.00
41250;BME280;26984;59.928;30.306;2022-11-20T07:24:55;101803.59;;;-3.54;100.00
41250;BME280;26984;59.928;30.306;2022-11-20T07:27:22;101796.34;;;-3.50;100.00
41250;BME280;26984;59.928;30.306;2022-11-20T07:29:50;101804.91;;;-3.47;100.00
41250;BME280;26984;59.928;30.306;2022-11-20T07:32:18;101802.28;;;-3.47;100.00
41250;BME280;26984;59.928;30.306;2022-11-20T07:34:46;101809.34;;;-3.47;100.00
41250;BME280;26984;59.928;30.306;2022-11-20T07:37:13;101807.06;;;-3.39;100.00
41250;BME280;26984;59.928;30.306;2022-11-20T07:39:41;101819.88;;;-3.47;100.00
41250;BME280;26984;59.928;30.306;2022-11-20T07:42:08;101822.31;;;-3.44;100.00
41250;BME280;26984;59.928;30.306;2022-11-20T07:44:37;101822.69;;;-3.50;100.00
41250;BME280;26984;59.928;30.306;2022-11-20T07:47:04;101822.16;;;-3.55;100.00
41250;BME280;26984;59.928;30.306;2022-11-20T07:49:33;101809.63;;;-3.52;100.00
41250;BME280;26984;59.928;30.306;2022-11-20T07:52:01;101817.25;;;-3.47;100.00
41250;BME280;26984;59.928;30.306;2022-11-20T07:54:28;101822.97;;;-3.41;100.00
41250;BME280;26984;59.928;30.306;2022-11-20T07:56:55;101825.78;;;-3.44;100.00
41250;BME280;26984;59.928;30.306;2022-11-20T07:59:23;101826.06;;;-3.34;100.00
41250;BME280;26984;59.928;30.306;2022-11-20T08:01:50;101815.25;;;-3.44;100.00
41250;BME280;26984;59.928;30.306;2022-11-20T08:04:17;101822.13;;;-3.41;100.00
41250;BME280;26984;59.928;30.306;2022-11-20T08:06:46;101818.34;;;-3.37;100.00
41250;BME280;26984;59.928;30.306;2022-11-20T08:09:13;101809.38;;;-3.34;100.00
41250;BME280;26984;59.928;30.306;2022-11-20T08:11:41;101816.94;;;-3.43;100.00
41250;BME280;26984;59.928;30.306;2022-11-20T08:14:26;101814.59;;;-3.47;100.00
41250;BME280;26984;59.928;30.306;2022-11-20T08:16:53;101808.09;;;-3.42;100.00
41250;BME280;26984;59.928;30.306;2022-11-20T08:19:21;101808.00;;;-3.40;100.00
41250;BME280;26984;59.928;30.306;2022-11-20T08:21:49;101807.16;;;-3.41;100.00
41250;BME280;26984;59.928;30.306;2022-11-20T08:24:17;101824.19;;;-3.46;100.00
41250;BME280;26984;59.928;30.306;2022-11-20T08:26:44;101811.13;;;-3.48;100.00
41250;BME280;26984;59.928;30.306;2022-11-20T08:29:13;101816.41;;;-3.48;100.00
41250;BME280;26984;59.928;30.306;2022-11-20T08:31:40;101806.09;;;-3.38;100.00
41250;BME280;26984;59.928;30.306;2022-11-20T08:34:08;101811.47;;;-3.40;100.00
41250;BME280;26984;59.928;30.306;2022-11-20T08:36:35;101830.75;;;-3.39;100.00
41250;BME280;26984;59.928;30.306;2022-11-20T08:39:04;101820.31;;;-3.26;100.00
41250;BME280;26984;59.928;30.306;2022-11-20T08:41:32;101823.19;;;-3.17;100.00
41250;BME280;26984;59.928;30.306;2022-11-20T08:44:00;101832.19;;;-3.06;100.00
41250;BME280;26984;59.928;30.306;2022-11-20T08:46:28;101831.72;;;-2.99;100.00
41250;BME280;26984;59.928;30.306;2022-11-20T08:48:59;101832.13;;;-2.92;100.00
41250;BME280;26984;59.928;30.306;2022-11-20T08:51:26;101825.19;;;-2.93;100.00
41250;BME280;26984;59.928;30.306;2022-11-20T08:53:54;101833.16;;;-2.80;100.00
41250;BME280;26984;59.928;30.306;2022-11-20T08:56:22;101831.88;;;-2.75;100.00
41250;BME280;26984;59.928;30.306;2022-11-20T08:58:50;101832.66;;;-2.73;100.00
41250;BME280;26984;59.928;30.306;2022-11-20T09:01:18;101835.63;;;-2.65;100.00
41250;BME280;26984;59.928;30.306;2022-11-20T09:03:45;101838.06;;;-2.61;100.00
41250;BME280;26984;59.928;30.306;2022-11-20T09:06:13;101825.31;;;-2.55;100.00
41250;BME280;26984;59.928;30.306;2022-11-20T09:08:41;101833.66;;;-2.48;100.00
41250;BME280;26984;59.928;30.306;2022-11-20T09:11:08;101819.72;;;-2.50;100.00
41250;BME280;26984;59.928;30.306;2022-11-20T09:13:37;101830.59;;;-2.42;100.00
41250;BME280;26984;59.928;30.306;2022-11-20T09:16:06;101825.13;;;-2.39;100.00
41250;BME280;26984;59.928;30.306;2022-11-20T09:18:34;101823.66;;;-2.30;100.00
41250;BME280;26984;59.928;30.306;2022-11-20T09:21:03;101819.03;;;-2.27;100.00
41250;BME280;26984;59.928;30.306;2022-11-20T09:23:32;101817.66;;;-2.20;100.00
41250;BME280;26984;59.928;30.306;2022-11-20T09:26:01;101809.41;;;-2.15;100.00
41250;BME280;26984;59.928;30.306;2022-11-20T09:28:29;101815.03;;;-2.20;100.00
41250;BME280;26984;59.928;30.306;2022-11-20T09:30:58;101810.06;;;-2.11;99.11
41250;BME280;26984;59.928;30.306;2022-11-20T09:33:26;101812.91;;;-2.14;99.25
41250;BME280;26984;59.928;30.306;2022-11-20T09:35:53;101818.28;;;-2.16;99.93
41250;BME280;26984;59.928;30.306;2022-11-20T09:38:21;101813.44;;;-2.09;99.94
41250;BME280;26984;59.928;30.306;2022-11-20T09:40:50;101811.53;;;-2.07;98.70
41250;BME280;26984;59.928;30.306;2022-11-20T09:43:19;101811.44;;;-2.06;98.95
41250;BME280;26984;59.928;30.306;2022-11-20T09:46:02;101806.66;;;-2.01;98.75
41250;BME280;26984;59.928;30.306;2022-11-20T09:48:48;101809.72;;;-2.07;98.50
41250;BME280;26984;59.928;30.306;2022-11-20T09:51:22;101804.44;;;-2.07;99.65
41250;BME280;26984;59.928;30.306;2022-11-20T09:53:56;101803.19;;;-2.01;99.04
41250;BME280;26984;59.928;30.306;2022-11-20T09:56:27;101804.78;;;-1.99;98.47
41250;BME280;26984;59.928;30.306;2022-11-20T09:58:57;101808.56;;;-1.90;97.67
41250;BME280;26984;59.928;30.306;2022-11-20T10:01:29;101812.59;;;-1.97;97.50
41250;BME280;26984;59.928;30.306;2022-11-20T10:03:58;101807.72;;;-2.03;97.96
41250;BME280;26984;59.928;30.306;2022-11-20T10:06:29;101807.31;;;-1.97;96.95
41250;BME280;26984;59.928;30.306;2022-11-20T10:09:01;101811.22;;;-1.90;96.59
41250;BME280;26984;59.928;30.306;2022-11-20T10:11:33;101803.28;;;-1.90;96.86
41250;BME280;26984;59.928;30.306;2022-11-20T10:14:04;101808.66;;;-1.79;96.90
41250;BME280;26984;59.928;30.306;2022-11-20T10:16:36;101807.47;;;-1.75;96.26
41250;BME280;26984;59.928;30.306;2022-11-20T10:19:10;101801.78;;;-1.69;96.75
41250;BME280;26984;59.928;30.306;2022-11-20T10:21:52;101807.88;;;-1.55;94.89
41250;BME280;26984;59.928;30.306;2022-11-20T10:24:47;101808.72;;;-1.55;94.14
41250;BME280;26984;59.928;30.306;2022-11-20T10:27:23;101801.34;;;-1.62;93.78
41250;BME280;26984;59.928;30.306;2022-11-20T10:29:54;101803.47;;;-1.67;94.10
41250;BME280;26984;59.928;30.306;2022-11-20T10:32:30;101801.16;;;-1.72;95.00
41250;BME280;26984;59.928;30.306;2022-11-20T10:35:00;101799.75;;;-1.65;94.90
41250;BME280;26984;59.928;30.306;2022-11-20T10:37:29;101799.66;;;-1.63;93.31
41250;BME280;26984;59.928;30.306;2022-11-20T10:39:59;101804.00;;;-1.62;93.70
41250;BME280;26984;59.928;30.306;2022-11-20T10:42:29;101816.47;;;-1.64;93.52
41250;BME280;26984;59.928;30.306;2022-11-20T10:45:01;101817.22;;;-1.62;93.94
41250;BME280;26984;59.928;30.306;2022-11-20T10:47:31;101815.63;;;-1.65;95.14
41250;BME280;26984;59.928;30.306;2022-11-20T10:50:00;101810.34;;;-1.65;93.91
41250;BME280;26984;59.928;30.306;2022-11-20T10:52:30;101808.94;;;-1.58;92.95
41250;BME280;26984;59.928;30.306;2022-11-20T10:55:02;101809.06;;;-1.59;93.13
41250;BME280;26984;59.928;30.306;2022-11-20T10:57:37;101802.59;;;-1.55;93.78
41250;BME280;26984;59.928;30.306;2022-11-20T11:00:07;101802.59;;;-1.55;94.66
41250;BME280;26984;59.928;30.306;2022-11-20T11:02:41;101809.78;;;-1.45;93.83
41250;BME280;26984;59.928;30.306;2022-11-20T11:05:12;101808.31;;;-1.49;93.74
41250;BME280;26984;59.928;30.306;2022-11-20T11:07:41;101808.94;;;-1.45;92.99
41250;BME280;26984;59.928;30.306;2022-11-20T11:12:42;101807.84;;;-1.42;92.74
41250;BME280;26984;59.928;30.306;2022-11-20T11:15:11;101799.19;;;-1.45;92.14
41250;BME280;26984;59.928;30.306;2022-11-20T11:17:45;101800.25;;;-1.47;92.55
41250;BME280;26984;59.928;30.306;2022-11-20T11:20:17;101806.59;;;-1.50;92.56
41250;BME280;26984;59.928;30.306;2022-11-20T11:22:45;101805.97;;;-1.53;93.40
41250;BME280;26984;59.928;30.306;2022-11-20T11:25:24;101813.69;;;-1.50;93.29
41250;BME280;26984;59.928;30.306;2022-11-20T11:27:52;101808.44;;;-1.63;92.96
41250;BME280;26984;59.928;30.306;2022-11-20T11:30:21;101822.16;;;-1.58;93.64
41250;BME280;26984;59.928;30.306;2022-11-20T11:32:50;101815.41;;;-1.62;93.37
41250;BME280;26984;59.928;30.306;2022-11-20T11:35:22;101800.38;;;-1.61;93.84
41250;BME280;26984;59.928;30.306;2022-11-20T11:37:50;101816.03;;;-1.71;94.54
41250;BME280;26984;59.928;30.306;2022-11-20T11:40:20;101805.25;;;-1.68;93.71
41250;BME280;26984;59.928;30.306;2022-11-20T11:42:51;101800.09;;;-1.70;94.54
41250;BME280;26984;59.928;30.306;2022-11-20T11:45:20;101807.47;;;-1.62;95.29
41250;BME280;26984;59.928;30.306;2022-11-20T11:47:47;101802.59;;;-1.55;94.99
41250;BME280;26984;59.928;30.306;2022-11-20T11:50:18;101807.88;;;-1.55;94.83
41250;BME280;26984;59.928;30.306;2022-11-20T11:52:48;101806.00;;;-1.66;95.94
41250;BME280;26984;59.928;30.306;2022-11-20T11:55:17;101806.22;;;-1.56;96.12
41250;BME280;26984;59.928;30.306;2022-11-20T11:57:49;101809.16;;;-1.48;96.36
41250;BME280;26984;59.928;30.306;2022-11-20T12:00:19;101806.50;;;-1.48;95.27
41250;BME280;26984;59.928;30.306;2022-11-20T12:02:52;101807.13;;;-1.57;95.03
41250;BME280;26984;59.928;30.306;2022-11-20T12:05:21;101804.56;;;-1.46;96.25
41250;BME280;26984;59.928;30.306;2022-11-20T12:07:51;101808.94;;;-1.45;95.69
41250;BME280;26984;59.928;30.306;2022-11-20T12:10:21;101808.72;;;-1.42;95.00
41250;BME280;26984;59.928;30.306;2022-11-20T12:12:51;101811.97;;;-1.38;94.98
41250;BME280;26984;59.928;30.306;2022-11-20T12:15:29;101805.81;;;-1.39;93.91
41250;BME280;26984;59.928;30.306;2022-11-20T12:17:56;101813.69;;;-1.50;93.83
41250;BME280;26984;59.928;30.306;2022-11-20T12:20:27;101811.16;;;-1.52;94.29
41250;BME280;26984;59.928;30.306;2022-11-20T12:22:56;101802.94;;;-1.60;95.10
41250;BME280;26984;59.928;30.306;2022-11-20T12:25:27;101808.53;;;-1.64;94.77
41250;BME280;26984;59.928;30.306;2022-11-20T12:28:07;101810.47;;;-1.66;95.78
41250;BME280;26984;59.928;30.306;2022-11-20T12:30:38;101808.88;;;-1.69;95.47
41250;BME280;26984;59.928;30.306;2022-11-20T12:36:07;101806.34;;;-1.83;95.78
41250;BME280;26984;59.928;30.306;2022-11-20T12:38:51;101812.59;;;-1.84;96.54
41250;BME280;26984;59.928;30.306;2022-11-20T12:41:26;101815.31;;;-1.86;97.44
41250;BME280;26984;59.928;30.306;2022-11-20T12:44:15;101819.34;;;-1.93;97.44
41250;BME280;26984;59.928;30.306;2022-11-20T12:47:17;101811.84;;;-2.12;97.78
41250;BME280;26984;59.928;30.306;2022-11-20T12:49:51;101822.63;;;-2.15;98.50